Airfield :
LOGIN :

Register | Disclaimer

   EN    FR    IT 

 










Legend :    VFR   Marginal VFR   IFR   Intensive IFR   Very Intensive IFR
Visi :
Ceiling :
>= 8 km
>= 3000ft
5 to 8 km
1000 to 3000 ft
1500m to 5 km
500 to 1000 ft
800 to 1500m
200 to 500 ft
< 800m
< 200 ft
Symbols :   Thunderstorms  Fog  Heavy snow  Heavy precipitations  Wind > 20 kt
SIGMETs :     Misc.  Thunderstorms  Icing  Turbulence  Mountain Waves  Volcanic Ashes






- Airport Elevation : 37 ft
- IATA code : FRO


ENFL - Florø

CURRENT METAR :
  • 280350Z AUTO 16017KT 9999NDV SCT028/// OVC066/// 12/09 Q1011

EXPIRED METARs :
  • 280320Z AUTO 16016KT 9999NDV SCT028/// 12/09 Q1011
  • 280250Z AUTO 16014KT 9999NDV FEW026/// SCT200/// 12/09 Q1010
  • 280220Z AUTO 17017KT 9999NDV FEW033/// SCT052/// OVC180/// 12/09 Q1010
  • 280150Z AUTO 17019KT 9999NDV SCT020/// BKN037/// OVC074/// 12/10 Q1010
  • 280120Z AUTO 18018KT 9999NDV FEW016/// SCT038/// BKN049/// 12/10 Q1009

TAF TAF ENFL
Valid from the 28 at 03:00 until the 28 at 12:00 UTC


280200Z 2803/2812 18015KT 9999 FEW020 BKN040



MET'MAP, your aeronautical weather chart ! - Copyright ORBIFLY December 2007 - Disclaimer

ORBIFLY MET'MAP TEAM :

Programming & Development : Alexandra Zaïnal
Concept & original design : Baudouin d'Aumeries
Assistance for programming : Marc-Olivier Méhu
Technical & hardware support : Manuel Goepfert

Contact : metmap@orbifly.com




SOURCES & CREDITS :

   NOAA